YWLM/NTL METAR and TAF weather

Enter ICAO airport designator
Station Type Date Time Source
YWLM METAR 2019/10/15 19:16 UTC NOAA

YWLM 151916Z AUTO 31005KT 9999 // NCD 14/13 Q1011


Station Type Date Time Source
YWLM Decoded METAR 2019/10/15 19:16 UTC NOAA

Station name not available
Oct 15, 2019 - 03:16 PM EDT / 2019.10.15 1916 UTC
Wind: from the NW (310 degrees) at 6 MPH (5 KT):0
Visibility: greater than 7 mile(s):0
Temperature: 57 F (14 C)
Dew Point: 55 F (13 C)
Relative Humidity: 93%
Pressure (altimeter): 29.85 in. Hg (1011 hPa)
ob: YWLM 151916Z AUTO 31005KT 9999 // NCD 14/13 Q1011
cycle: 19

Station Type Date Time Source
YWLM TAF 2019/10/15 19:57 UTC NOAA

TAF TAF
AMD YWLM 151854Z 1519/1618 32005KT 0500 FG BKN003
FM152100 18012KT 9999 BKN007
FM152300 16012KT 9999 SCT020
FM160300 14015KT 9999 -SHRA SCT020 BKN100
FM161000 08005KT 9999 NSW SCT010 PROB30 INTER 1605/1610 VRB20G30KT 3000 TSRA SCT010 SCT030CB

Example: see airport list